Flight Track Log - Related Links

Times and Time Zones

All times are in EDT time to prevent confusion due to time zone crossing. See the ASH2766 flight status page for this flight to view local times or setup timezone preferences in your user account.

Time Position Orientation Groundspeed Altitude Reporting Facility
EDT Latitude Longitude Course Direction KTS MPH feet Rate Location/Type
Sun 01:11:56 PM 34.2167 -118.3667 54° Northeast 152 175 1,800  Level Southern California TRACON
Sun 01:14:11 PM 34.2792 -118.4794 304° West 210 242 8,600 2,589 Climbing Los Angeles Center
Sun 01:15:00 PM 34.3948 -118.4218 40° Northeast  Level FlightAware Approximate
Sun 01:15:13 PM 34.3369 -118.4450 26° Northeast 228 262 10,300  Level Los Angeles Center
Sun 01:16:00 PM 34.4559 -118.3079 51° Northeast  Level FlightAware Approximate
Sun 01:16:15 PM 34.4089 -118.3800 37° Northeast 315 362 12,400  Level Los Angeles Center
Sun 01:17:00 PM 34.5278 -118.2036 54° Northeast  Level FlightAware Approximate
Sun 01:17:18 PM 34.4833 -118.3014 41° Northeast 358 412 14,700  Level Los Angeles Center
Sun 01:18:20 PM 34.5486 -118.1969 53° Northeast 384 442 17,000 2,081 Climbing Los Angeles Center
Sun 01:19:22 PM 34.6236 -118.0758 53° Northeast 409 471 19,000 968 Climbing Los Angeles Center
Sun 01:20:24 PM 34.6461 -117.9247 80° East 459 528 19,000 242 Level Los Angeles Center
Sun 01:21:26 PM 34.6636 -117.7700 82° East 462 532 19,500 1,452 Climbing Los Angeles Center
Sun 01:22:28 PM 34.6836 -117.5806 83° East 475 547 22,000 2,112 Climbing Los Angeles Center
Sun 01:23:31 PM 34.7000 -117.4197 83° East 480 552 23,900 1,728 Climbing Los Angeles Center
Sun 01:24:33 PM 34.7167 -117.2575 83° East 485 558 25,600 1,500 Climbing Los Angeles Center
Sun 01:25:35 PM 34.7339 -117.0906 83° East 499 574 27,000 1,452 Climbing Los Angeles Center
Sun 01:26:37 PM 34.7550 -116.8883 83° East 504 580 28,600 968 Climbing Los Angeles Center
Sun 01:27:39 PM 34.7728 -116.7128 83° East 518 596 29,000 290 Climbing Los Angeles Center
Sun 01:28:41 PM 34.7903 -116.5328 83° East 534 615 29,200 576 Climbing Los Angeles Center
Sun 01:29:44 PM 34.8247 -116.3533 77° East 547 629 30,200 1,248 Climbing Los Angeles Center
Sun 01:30:46 PM 34.8714 -116.1778 72° East 550 633 31,800 1,016 Climbing Los Angeles Center
Sun 01:31:48 PM 34.9189 -115.9972 72° East 553 636 32,300 581 Climbing Los Angeles Center
Sun 01:32:50 PM 34.9772 -115.7775 72° East 563 648 33,000 339 Climbing Los Angeles Center
Sun 01:33:52 PM 35.0231 -115.5978 73° East 564 649 33,000 48 Level Los Angeles Center
Sun 01:34:54 PM 35.0692 -115.4222 72° East 555 639 33,100  Climbing Los Angeles Center
Sun 01:35:56 PM 35.1139 -115.2486 72° East 545 627 33,000 -48 Descending Los Angeles Center
Sun 01:36:59 PM 35.1739 -115.0358 71° East 545 627 33,000  Level Los Angeles Center
Sun 01:38:01 PM 35.2275 -114.8622 69° East 545 627 33,000  Level Los Angeles Center
Sun 01:39:03 PM 35.2831 -114.6858 69° East 552 635 33,000  Level Los Angeles Center
Sun 01:40:05 PM 35.3364 -114.5083 70° East 555 639 33,000 -194 Level Los Angeles Center
Sun 01:41:07 PM 35.3914 -114.3289 69° East 559 643 32,600 -677 Descending Los Angeles Center
Sun 01:42:09 PM 35.4400 -114.1528 71° East 554 638 31,600 -1,016 Descending Los Angeles Center
Sun 01:43:11 PM 35.4222 -113.9278 95° East 561 646 30,500 -1,008 Descending Los Angeles Center
Sun 01:44:14 PM 35.3744 -113.7786 111° Southeast 543 625 29,500 -720 Descending Los Angeles Center
Sun 01:45:16 PM 35.3117 -113.5922 112° Southeast 498 573 29,000 -242 Descending Los Angeles Center
Sun 01:46:18 PM 35.2414 -113.4531 122° Southeast 490 564 29,000  Level Los Angeles Center
Sun 01:47:20 PM 35.1664 -113.3181 124° Southeast 488 562 29,000  Level Los Angeles Center
Sun 01:48:09 PM 35.1081 -113.2119 124° Southeast 484 557 29,000  Level Albuquerque Center
Sun 01:49:11 PM 35.0392 -113.0858 124° Southeast 461 531 29,000  Level Albuquerque Center
Sun 01:50:13 PM 34.9544 -112.9319 124° Southeast 461 531 29,000  Level Albuquerque Center
Sun 01:51:15 PM 34.8814 -112.8036 125° Southeast 462 532 29,000 -387 Level Albuquerque Center
Sun 01:52:17 PM 34.8103 -112.6725 123° Southeast 466 536 28,200 -1,355 Descending Albuquerque Center
Sun 01:53:19 PM 34.7403 -112.5489 125° Southeast 459 528 26,200 -1,839 Descending Albuquerque Center
Sun 01:54:21 PM 34.6675 -112.4447 130° Southeast 431 496 24,400 -2,032 Descending Albuquerque Center
Sun 01:55:23 PM 34.5675 -112.3508 142° Southeast 394 453 22,000 -2,160 Descending Albuquerque Center
Sun 01:56:26 PM 34.4878 -112.2725 141° Southeast 380 437 19,900 -1,968 Descending Albuquerque Center
Sun 01:57:28 PM 34.4075 -112.2194 151° Southeast 352 405 17,900 -1,403 Descending Albuquerque Center
Sun 01:58:30 PM 34.3208 -112.1978 168° South 329 379 17,000 -871 Descending Albuquerque Center
Sun 01:59:32 PM 34.2356 -112.1761 168° South 321 369 16,100 -1,210 Descending Albuquerque Center
Sun 02:00:34 PM 34.1428 -112.1511 167° South 286 329 14,500 -1,548 Descending Albuquerque Center
Sun 02:01:36 PM 34.0669 -112.1375 172° South 281 323 12,900 -968 Descending Albuquerque Center
Sun 02:02:38 PM 33.9975 -112.1450 185° South 251 289 12,500 -823 Descending Albuquerque Center
Sun 02:03:40 PM 33.9364 -112.1519 185° South 228 262 11,200 -1,210 Descending Albuquerque Center
Sun 02:04:42 PM 33.8761 -112.1617 188° South 221 254 10,000 -1,258 Descending Albuquerque Center
Sun 02:05:44 PM 33.8056 -112.1767 190° South 220 253 8,600 -968 Descending Albuquerque Center
Sun 02:06:46 PM 33.7486 -112.1894 191° South 213 245 8,000 -581 Descending Albuquerque Center
Sun 02:07:48 PM 33.6900 -112.2019 190° South 213 245 7,400 -871 Descending Albuquerque Center
Sun 02:08:50 PM 33.6314 -112.2147 190° South 213 245 6,200 -672 Descending Albuquerque Center
Sun 02:09:53 PM 33.5728 -112.2272 190° South 213 245 6,000 -624 Descending Albuquerque Center
Sun 02:10:55 PM 33.5144 -112.2394 190° South 213 245 4,900 -1,258 Descending Albuquerque Center
Sun 02:11:57 PM 33.4572 -112.1919 145° Southeast 228 262 3,400 -968 Descending Albuquerque Center
Sun 02:12:59 PM 33.4414 -112.1281 107° East 203 234 2,900 -726 Descending Albuquerque Center
Sun 02:14:01 PM 33.4406 -112.0664 91° East 167 192 1,900 -823 Descending Albuquerque Center
Sun 02:15:03 PM 33.4414 -112.0264 89° East 147 169 1,200 -677 Descending Albuquerque Center

Login

Don't have an account? Register now (free) for customized features, flight alerts, and more!